sensor_id;sensor_type;location;lat;lon;timestamp;P1;durP1;ratioP1;P2;durP2;ratioP2
30303;SDS011;17112;48.636;10.152;2024-02-21T00:00:47;10.88;;;4.70;;
30303;SDS011;17112;48.636;10.152;2024-02-21T00:03:13;11.80;;;4.65;;
30303;SDS011;17112;48.636;10.152;2024-02-21T00:05:38;12.60;;;4.43;;
30303;SDS011;17112;48.636;10.152;2024-02-21T00:08:04;12.20;;;4.40;;
30303;SDS011;17112;48.636;10.152;2024-02-21T00:10:30;12.63;;;3.88;;
30303;SDS011;17112;48.636;10.152;2024-02-21T00:13:00;10.93;;;4.20;;
30303;SDS011;17112;48.636;10.152;2024-02-21T00:15:26;10.18;;;4.00;;
30303;SDS011;17112;48.636;10.152;2024-02-21T00:17:51;11.15;;;4.50;;
30303;SDS011;17112;48.636;10.152;2024-02-21T00:20:17;12.80;;;4.18;;
30303;SDS011;17112;48.636;10.152;2024-02-21T00:22:43;9.30;;;3.30;;
30303;SDS011;17112;48.636;10.152;2024-02-21T00:25:09;5.55;;;3.00;;
30303;SDS011;17112;48.636;10.152;2024-02-21T00:27:35;9.52;;;3.75;;
30303;SDS011;17112;48.636;10.152;2024-02-21T00:30:01;10.80;;;3.65;;
30303;SDS011;17112;48.636;10.152;2024-02-21T00:32:27;10.20;;;3.83;;
30303;SDS011;17112;48.636;10.152;2024-02-21T00:34:53;8.98;;;3.63;;
30303;SDS011;17112;48.636;10.152;2024-02-21T00:37:18;11.55;;;3.47;;
30303;SDS011;17112;48.636;10.152;2024-02-21T00:39:44;7.80;;;3.38;;
30303;SDS011;17112;48.636;10.152;2024-02-21T00:42:10;9.15;;;3.30;;
30303;SDS011;17112;48.636;10.152;2024-02-21T00:44:40;9.70;;;3.13;;
30303;SDS011;17112;48.636;10.152;2024-02-21T00:47:07;13.15;;;3.70;;
30303;SDS011;17112;48.636;10.152;2024-02-21T00:49:33;16.77;;;3.40;;
30303;SDS011;17112;48.636;10.152;2024-02-21T00:51:58;9.40;;;3.30;;
30303;SDS011;17112;48.636;10.152;2024-02-21T00:54:24;8.57;;;3.28;;
30303;SDS011;17112;48.636;10.152;2024-02-21T00:56:50;16.75;;;3.40;;
30303;SDS011;17112;48.636;10.152;2024-02-21T00:59:15;11.13;;;3.60;;
30303;SDS011;17112;48.636;10.152;2024-02-21T01:01:41;8.60;;;3.08;;
30303;SDS011;17112;48.636;10.152;2024-02-21T01:04:08;10.55;;;3.17;;
30303;SDS011;17112;48.636;10.152;2024-02-21T01:06:34;9.90;;;3.20;;
30303;SDS011;17112;48.636;10.152;2024-02-21T01:09:00;9.18;;;2.80;;
30303;SDS011;17112;48.636;10.152;2024-02-21T01:11:25;11.90;;;3.70;;
30303;SDS011;17112;48.636;10.152;2024-02-21T01:13:51;9.77;;;3.72;;
30303;SDS011;17112;48.636;10.152;2024-02-21T01:16:17;10.25;;;3.17;;
30303;SDS011;17112;48.636;10.152;2024-02-21T01:18:42;14.43;;;3.65;;
30303;SDS011;17112;48.636;10.152;2024-02-21T01:21:08;14.48;;;3.60;;
30303;SDS011;17112;48.636;10.152;2024-02-21T01:23:35;11.32;;;3.30;;
30303;SDS011;17112;48.636;10.152;2024-02-21T01:26:02;10.73;;;3.40;;
30303;SDS011;17112;48.636;10.152;2024-02-21T01:28:28;12.98;;;3.92;;
30303;SDS011;17112;48.636;10.152;2024-02-21T01:30:54;6.55;;;2.90;;
30303;SDS011;17112;48.636;10.152;2024-02-21T01:33:19;10.23;;;3.25;;
30303;SDS011;17112;48.636;10.152;2024-02-21T01:35:45;9.15;;;3.35;;
30303;SDS011;17112;48.636;10.152;2024-02-21T01:38:12;9.48;;;3.20;;
30303;SDS011;17112;48.636;10.152;2024-02-21T01:40:40;8.98;;;3.53;;
30303;SDS011;17112;48.636;10.152;2024-02-21T01:43:15;8.27;;;3.00;;
30303;SDS011;17112;48.636;10.152;2024-02-21T01:45:46;12.40;;;3.65;;
30303;SDS011;17112;48.636;10.152;2024-02-21T01:48:32;15.43;;;3.58;;
30303;SDS011;17112;48.636;10.152;2024-02-21T01:50:59;8.75;;;3.47;;
30303;SDS011;17112;48.636;10.152;2024-02-21T01:53:27;7.88;;;3.25;;
30303;SDS011;17112;48.636;10.152;2024-02-21T01:55:57;12.15;;;3.58;;
30303;SDS011;17112;48.636;10.152;2024-02-21T01:58:23;9.77;;;2.90;;
30303;SDS011;17112;48.636;10.152;2024-02-21T02:00:49;11.65;;;3.53;;
30303;SDS011;17112;48.636;10.152;2024-02-21T02:03:15;9.10;;;2.90;;
30303;SDS011;17112;48.636;10.152;2024-02-21T02:08:11;10.77;;;3.15;;
30303;SDS011;17112;48.636;10.152;2024-02-21T02:10:40;9.98;;;3.25;;
30303;SDS011;17112;48.636;10.152;2024-02-21T02:13:06;10.75;;;3.22;;
30303;SDS011;17112;48.636;10.152;2024-02-21T02:15:41;10.75;;;3.20;;
30303;SDS011;17112;48.636;10.152;2024-02-21T02:18:07;9.25;;;3.38;;
30303;SDS011;17112;48.636;10.152;2024-02-21T02:20:35;10.68;;;4.03;;
30303;SDS011;17112;48.636;10.152;2024-02-21T02:23:03;8.95;;;3.38;;
30303;SDS011;17112;48.636;10.152;2024-02-21T02:25:36;8.18;;;2.60;;
30303;SDS011;17112;48.636;10.152;2024-02-21T02:28:03;9.65;;;3.00;;
30303;SDS011;17112;48.636;10.152;2024-02-21T02:30:36;6.45;;;2.60;;
30303;SDS011;17112;48.636;10.152;2024-02-21T02:33:03;16.85;;;3.13;;
30303;SDS011;17112;48.636;10.152;2024-02-21T02:35:29;10.15;;;3.22;;
30303;SDS011;17112;48.636;10.152;2024-02-21T02:37:55;11.18;;;2.95;;
30303;SDS011;17112;48.636;10.152;2024-02-21T02:40:20;12.55;;;2.80;;
30303;SDS011;17112;48.636;10.152;2024-02-21T02:42:46;12.48;;;3.15;;
30303;SDS011;17112;48.636;10.152;2024-02-21T02:45:14;13.15;;;3.15;;
30303;SDS011;17112;48.636;10.152;2024-02-21T02:47:46;9.55;;;3.28;;
30303;SDS011;17112;48.636;10.152;2024-02-21T02:50:12;10.73;;;3.28;;
30303;SDS011;17112;48.636;10.152;2024-02-21T02:52:38;16.10;;;3.15;;
30303;SDS011;17112;48.636;10.152;2024-02-21T02:55:05;12.77;;;2.97;;
30303;SDS011;17112;48.636;10.152;2024-02-21T02:57:31;8.15;;;3.03;;
30303;SDS011;17112;48.636;10.152;2024-02-21T02:59:57;9.18;;;3.05;;
30303;SDS011;17112;48.636;10.152;2024-02-21T03:02:23;9.60;;;2.90;;
30303;SDS011;17112;48.636;10.152;2024-02-21T03:04:49;13.45;;;3.55;;
30303;SDS011;17112;48.636;10.152;2024-02-21T03:07:15;8.75;;;3.20;;
30303;SDS011;17112;48.636;10.152;2024-02-21T03:09:41;9.00;;;2.78;;
30303;SDS011;17112;48.636;10.152;2024-02-21T03:12:09;9.07;;;2.63;;
30303;SDS011;17112;48.636;10.152;2024-02-21T03:14:36;11.52;;;2.72;;
30303;SDS011;17112;48.636;10.152;2024-02-21T03:17:01;11.00;;;2.88;;
30303;SDS011;17112;48.636;10.152;2024-02-21T03:19:28;8.57;;;3.30;;
30303;SDS011;17112;48.636;10.152;2024-02-21T03:21:54;6.93;;;3.00;;
30303;SDS011;17112;48.636;10.152;2024-02-21T03:24:20;9.02;;;2.80;;
30303;SDS011;17112;48.636;10.152;2024-02-21T03:26:46;16.92;;;2.97;;
30303;SDS011;17112;48.636;10.152;2024-02-21T03:29:14;10.88;;;3.13;;
30303;SDS011;17112;48.636;10.152;2024-02-21T03:31:40;6.53;;;3.10;;
30303;SDS011;17112;48.636;10.152;2024-02-21T03:34:06;9.18;;;3.22;;
30303;SDS011;17112;48.636;10.152;2024-02-21T03:36:31;7.38;;;3.08;;
30303;SDS011;17112;48.636;10.152;2024-02-21T03:38:57;12.43;;;3.28;;
30303;SDS011;17112;48.636;10.152;2024-02-21T03:41:23;9.90;;;2.88;;
30303;SDS011;17112;48.636;10.152;2024-02-21T03:43:48;6.53;;;2.90;;
30303;SDS011;17112;48.636;10.152;2024-02-21T03:46:14;7.72;;;2.90;;
30303;SDS011;17112;48.636;10.152;2024-02-21T03:48:40;6.18;;;2.42;;
30303;SDS011;17112;48.636;10.152;2024-02-21T03:51:06;10.32;;;2.72;;
30303;SDS011;17112;48.636;10.152;2024-02-21T03:53:32;11.00;;;2.85;;
30303;SDS011;17112;48.636;10.152;2024-02-21T03:56:00;10.93;;;2.55;;
30303;SDS011;17112;48.636;10.152;2024-02-21T03:58:32;9.02;;;2.83;;
30303;SDS011;17112;48.636;10.152;2024-02-21T04:01:01;10.52;;;2.75;;
30303;SDS011;17112;48.636;10.152;2024-02-21T04:03:27;9.15;;;2.85;;
30303;SDS011;17112;48.636;10.152;2024-02-21T04:05:53;7.07;;;2.70;;
30303;SDS011;17112;48.636;10.152;2024-02-21T04:08:19;7.07;;;2.80;;
30303;SDS011;17112;48.636;10.152;2024-02-21T04:10:44;8.65;;;2.88;;
30303;SDS011;17112;48.636;10.152;2024-02-21T04:13:10;11.77;;;3.33;;
30303;SDS011;17112;48.636;10.152;2024-02-21T04:15:36;10.70;;;2.75;;
30303;SDS011;17112;48.636;10.152;2024-02-21T04:18:02;8.68;;;3.35;;
30303;SDS011;17112;48.636;10.152;2024-02-21T04:20:30;8.20;;;2.65;;
30303;SDS011;17112;48.636;10.152;2024-02-21T04:22:57;7.85;;;2.90;;
30303;SDS011;17112;48.636;10.152;2024-02-21T04:25:24;6.47;;;2.72;;
30303;SDS011;17112;48.636;10.152;2024-02-21T04:27:49;8.38;;;2.92;;
30303;SDS011;17112;48.636;10.152;2024-02-21T04:30:15;6.55;;;2.50;;
30303;SDS011;17112;48.636;10.152;2024-02-21T04:32:41;10.45;;;3.10;;
30303;SDS011;17112;48.636;10.152;2024-02-21T04:35:07;7.30;;;3.00;;
30303;SDS011;17112;48.636;10.152;2024-02-21T04:37:33;13.68;;;3.60;;
30303;SDS011;17112;48.636;10.152;2024-02-21T04:39:59;9.20;;;3.53;;
30303;SDS011;17112;48.636;10.152;2024-02-21T04:42:25;7.78;;;3.17;;
30303;SDS011;17112;48.636;10.152;2024-02-21T04:44:50;10.65;;;3.28;;
30303;SDS011;17112;48.636;10.152;2024-02-21T04:47:16;8.45;;;3.17;;
30303;SDS011;17112;48.636;10.152;2024-02-21T04:49:42;7.00;;;2.78;;
30303;SDS011;17112;48.636;10.152;2024-02-21T04:52:08;10.60;;;2.97;;
30303;SDS011;17112;48.636;10.152;2024-02-21T04:54:33;9.23;;;3.08;;
30303;SDS011;17112;48.636;10.152;2024-02-21T04:57:02;9.43;;;2.53;;
30303;SDS011;17112;48.636;10.152;2024-02-21T04:59:28;9.13;;;2.95;;
30303;SDS011;17112;48.636;10.152;2024-02-21T05:01:54;11.65;;;3.08;;
30303;SDS011;17112;48.636;10.152;2024-02-21T05:04:20;9.82;;;2.95;;
30303;SDS011;17112;48.636;10.152;2024-02-21T05:06:45;7.32;;;2.72;;
30303;SDS011;17112;48.636;10.152;2024-02-21T05:09:11;9.82;;;2.97;;
30303;SDS011;17112;48.636;10.152;2024-02-21T05:11:37;8.93;;;2.80;;
30303;SDS011;17112;48.636;10.152;2024-02-21T05:14:03;13.27;;;5.80;;
30303;SDS011;17112;48.636;10.152;2024-02-21T05:16:29;17.05;;;5.97;;
30303;SDS011;17112;48.636;10.152;2024-02-21T05:18:56;17.92;;;6.13;;
30303;SDS011;17112;48.636;10.152;2024-02-21T05:21:25;16.15;;;6.40;;
30303;SDS011;17112;48.636;10.152;2024-02-21T05:23:52;12.68;;;5.40;;
30303;SDS011;17112;48.636;10.152;2024-02-21T05:26:21;10.27;;;4.10;;
30303;SDS011;17112;48.636;10.152;2024-02-21T05:28:50;15.48;;;4.28;;
30303;SDS011;17112;48.636;10.152;2024-02-21T05:31:17;9.70;;;3.45;;
30303;SDS011;17112;48.636;10.152;2024-02-21T05:33:43;8.35;;;3.67;;
30303;SDS011;17112;48.636;10.152;2024-02-21T05:36:09;6.82;;;3.15;;
30303;SDS011;17112;48.636;10.152;2024-02-21T05:38:36;12.90;;;3.28;;
30303;SDS011;17112;48.636;10.152;2024-02-21T05:41:01;10.85;;;3.03;;
30303;SDS011;17112;48.636;10.152;2024-02-21T05:43:28;6.75;;;3.08;;
30303;SDS011;17112;48.636;10.152;2024-02-21T05:45:53;12.25;;;3.10;;
30303;SDS011;17112;48.636;10.152;2024-02-21T05:48:21;9.82;;;2.90;;
30303;SDS011;17112;48.636;10.152;2024-02-21T05:50:48;8.05;;;2.85;;
30303;SDS011;17112;48.636;10.152;2024-02-21T05:53:13;5.97;;;2.75;;
30303;SDS011;17112;48.636;10.152;2024-02-21T05:55:40;7.68;;;2.80;;
30303;SDS011;17112;48.636;10.152;2024-02-21T05:58:06;10.15;;;3.17;;
30303;SDS011;17112;48.636;10.152;2024-02-21T06:00:32;11.23;;;2.80;;
30303;SDS011;17112;48.636;10.152;2024-02-21T06:02:58;7.90;;;3.22;;
30303;SDS011;17112;48.636;10.152;2024-02-21T06:05:23;7.05;;;3.03;;
30303;SDS011;17112;48.636;10.152;2024-02-21T06:07:49;8.68;;;2.88;;
30303;SDS011;17112;48.636;10.152;2024-02-21T06:10:15;8.32;;;2.97;;
30303;SDS011;17112;48.636;10.152;2024-02-21T06:12:41;7.68;;;2.75;;
30303;SDS011;17112;48.636;10.152;2024-02-21T06:15:07;9.05;;;3.03;;
30303;SDS011;17112;48.636;10.152;2024-02-21T06:17:33;7.95;;;3.08;;
30303;SDS011;17112;48.636;10.152;2024-02-21T06:19:58;8.48;;;2.65;;
30303;SDS011;17112;48.636;10.152;2024-02-21T06:22:24;7.32;;;2.85;;
30303;SDS011;17112;48.636;10.152;2024-02-21T06:24:50;8.13;;;2.65;;
30303;SDS011;17112;48.636;10.152;2024-02-21T06:27:15;8.30;;;2.55;;
30303;SDS011;17112;48.636;10.152;2024-02-21T06:29:42;8.00;;;2.80;;
30303;SDS011;17112;48.636;10.152;2024-02-21T06:32:07;9.13;;;2.78;;
30303;SDS011;17112;48.636;10.152;2024-02-21T06:34:33;8.00;;;2.75;;
30303;SDS011;17112;48.636;10.152;2024-02-21T06:36:59;8.85;;;2.38;;
30303;SDS011;17112;48.636;10.152;2024-02-21T06:39:25;9.02;;;2.90;;
30303;SDS011;17112;48.636;10.152;2024-02-21T06:41:50;9.80;;;3.38;;
30303;SDS011;17112;48.636;10.152;2024-02-21T06:44:17;6.38;;;3.08;;
30303;SDS011;17112;48.636;10.152;2024-02-21T06:46:43;8.30;;;3.00;;
30303;SDS011;17112;48.636;10.152;2024-02-21T06:49:09;8.65;;;2.78;;
30303;SDS011;17112;48.636;10.152;2024-02-21T06:51:40;13.13;;;3.50;;
30303;SDS011;17112;48.636;10.152;2024-02-21T06:54:09;10.48;;;4.00;;
30303;SDS011;17112;48.636;10.152;2024-02-21T06:56:35;11.70;;;3.63;;
30303;SDS011;17112;48.636;10.152;2024-02-21T06:59:02;10.05;;;3.63;;
30303;SDS011;17112;48.636;10.152;2024-02-21T07:01:31;17.83;;;5.15;;
30303;SDS011;17112;48.636;10.152;2024-02-21T07:03:57;11.90;;;3.65;;
30303;SDS011;17112;48.636;10.152;2024-02-21T07:06:23;6.78;;;3.30;;
30303;SDS011;17112;48.636;10.152;2024-02-21T07:08:48;14.35;;;4.55;;
30303;SDS011;17112;48.636;10.152;2024-02-21T07:11:14;16.27;;;4.63;;
30303;SDS011;17112;48.636;10.152;2024-02-21T07:13:40;12.13;;;4.38;;
30303;SDS011;17112;48.636;10.152;2024-02-21T07:16:06;10.77;;;4.60;;
30303;SDS011;17112;48.636;10.152;2024-02-21T07:18:33;13.13;;;4.65;;
30303;SDS011;17112;48.636;10.152;2024-02-21T07:20:59;13.15;;;5.30;;
30303;SDS011;17112;48.636;10.152;2024-02-21T07:23:24;18.10;;;6.57;;
30303;SDS011;17112;48.636;10.152;2024-02-21T07:25:50;19.13;;;5.70;;
30303;SDS011;17112;48.636;10.152;2024-02-21T07:28:16;11.10;;;5.22;;
30303;SDS011;17112;48.636;10.152;2024-02-21T07:30:42;13.27;;;4.95;;
30303;SDS011;17112;48.636;10.152;2024-02-21T07:33:08;12.70;;;5.15;;
30303;SDS011;17112;48.636;10.152;2024-02-21T07:35:34;18.88;;;6.45;;
30303;SDS011;17112;48.636;10.152;2024-02-21T07:38:03;10.18;;;4.82;;
30303;SDS011;17112;48.636;10.152;2024-02-21T07:40:29;10.10;;;4.68;;
30303;SDS011;17112;48.636;10.152;2024-02-21T07:42:55;10.65;;;4.45;;
30303;SDS011;17112;48.636;10.152;2024-02-21T07:45:21;12.93;;;4.20;;
30303;SDS011;17112;48.636;10.152;2024-02-21T07:47:48;8.27;;;3.95;;
30303;SDS011;17112;48.636;10.152;2024-02-21T07:50:14;11.05;;;3.80;;
30303;SDS011;17112;48.636;10.152;2024-02-21T07:52:40;8.93;;;4.10;;
30303;SDS011;17112;48.636;10.152;2024-02-21T07:55:06;12.35;;;4.63;;
30303;SDS011;17112;48.636;10.152;2024-02-21T07:57:32;16.95;;;5.32;;
30303;SDS011;17112;48.636;10.152;2024-02-21T07:59:57;10.02;;;4.20;;
30303;SDS011;17112;48.636;10.152;2024-02-21T08:02:23;10.82;;;4.60;;
30303;SDS011;17112;48.636;10.152;2024-02-21T08:04:49;14.52;;;4.72;;
30303;SDS011;17112;48.636;10.152;2024-02-21T08:07:14;11.63;;;4.75;;
30303;SDS011;17112;48.636;10.152;2024-02-21T08:09:40;12.40;;;4.68;;
30303;SDS011;17112;48.636;10.152;2024-02-21T08:12:06;9.48;;;3.90;;
30303;SDS011;17112;48.636;10.152;2024-02-21T08:14:32;15.30;;;4.50;;
30303;SDS011;17112;48.636;10.152;2024-02-21T08:16:57;9.50;;;3.72;;
30303;SDS011;17112;48.636;10.152;2024-02-21T08:19:24;10.45;;;4.53;;
30303;SDS011;17112;48.636;10.152;2024-02-21T08:21:50;9.77;;;4.18;;
30303;SDS011;17112;48.636;10.152;2024-02-21T08:24:16;14.85;;;4.47;;
30303;SDS011;17112;48.636;10.152;2024-02-21T08:26:41;11.77;;;3.95;;
30303;SDS011;17112;48.636;10.152;2024-02-21T08:29:07;9.80;;;4.22;;
30303;SDS011;17112;48.636;10.152;2024-02-21T08:31:33;12.40;;;3.97;;
30303;SDS011;17112;48.636;10.152;2024-02-21T08:34:02;11.50;;;3.75;;
30303;SDS011;17112;48.636;10.152;2024-02-21T08:36:32;16.83;;;4.35;;
30303;SDS011;17112;48.636;10.152;2024-02-21T08:38:59;11.02;;;3.42;;
30303;SDS011;17112;48.636;10.152;2024-02-21T08:41:25;12.07;;;3.58;;
30303;SDS011;17112;48.636;10.152;2024-02-21T08:43:51;9.38;;;3.58;;
30303;SDS011;17112;48.636;10.152;2024-02-21T08:46:19;13.35;;;3.40;;
30303;SDS011;17112;48.636;10.152;2024-02-21T08:48:45;14.52;;;3.47;;
30303;SDS011;17112;48.636;10.152;2024-02-21T08:51:14;9.20;;;2.92;;
30303;SDS011;17112;48.636;10.152;2024-02-21T08:53:40;8.13;;;2.70;;
30303;SDS011;17112;48.636;10.152;2024-02-21T08:56:06;7.82;;;3.08;;
30303;SDS011;17112;48.636;10.152;2024-02-21T08:58:32;10.82;;;3.47;;
30303;SDS011;17112;48.636;10.152;2024-02-21T09:00:58;8.63;;;3.08;;
30303;SDS011;17112;48.636;10.152;2024-02-21T09:03:24;8.93;;;3.72;;
30303;SDS011;17112;48.636;10.152;2024-02-21T09:05:50;8.40;;;3.28;;
30303;SDS011;17112;48.636;10.152;2024-02-21T09:08:15;9.98;;;3.55;;
30303;SDS011;17112;48.636;10.152;2024-02-21T09:10:43;10.45;;;3.10;;
30303;SDS011;17112;48.636;10.152;2024-02-21T09:13:09;8.15;;;2.90;;
30303;SDS011;17112;48.636;10.152;2024-02-21T09:15:34;7.65;;;2.88;;
30303;SDS011;17112;48.636;10.152;2024-02-21T09:18:00;12.77;;;2.75;;
30303;SDS011;17112;48.636;10.152;2024-02-21T09:20:26;10.30;;;2.85;;
30303;SDS011;17112;48.636;10.152;2024-02-21T09:22:51;8.93;;;2.78;;
30303;SDS011;17112;48.636;10.152;2024-02-21T09:25:20;9.55;;;3.33;;
30303;SDS011;17112;48.636;10.152;2024-02-21T09:27:46;6.97;;;2.33;;
30303;SDS011;17112;48.636;10.152;2024-02-21T09:30:11;9.75;;;2.78;;
30303;SDS011;17112;48.636;10.152;2024-02-21T09:32:38;8.45;;;2.45;;
30303;SDS011;17112;48.636;10.152;2024-02-21T09:35:04;14.52;;;2.70;;
30303;SDS011;17112;48.636;10.152;2024-02-21T09:37:33;9.77;;;2.88;;
30303;SDS011;17112;48.636;10.152;2024-02-21T09:39:59;7.57;;;2.40;;
30303;SDS011;17112;48.636;10.152;2024-02-21T09:42:27;10.00;;;2.58;;
30303;SDS011;17112;48.636;10.152;2024-02-21T09:45:08;8.93;;;2.60;;
30303;SDS011;17112;48.636;10.152;2024-02-21T09:50:35;7.55;;;2.17;;
30303;SDS011;17112;48.636;10.152;2024-02-21T09:53:03;7.40;;;2.50;;
30303;SDS011;17112;48.636;10.152;2024-02-21T09:55:31;7.50;;;2.35;;
30303;SDS011;17112;48.636;10.152;2024-02-21T09:57:59;8.48;;;2.13;;
30303;SDS011;17112;48.636;10.152;2024-02-21T10:00:27;12.18;;;2.60;;
30303;SDS011;17112;48.636;10.152;2024-02-21T10:02:53;5.80;;;2.35;;
30303;SDS011;17112;48.636;10.152;2024-02-21T10:05:19;9.30;;;2.63;;
30303;SDS011;17112;48.636;10.152;2024-02-21T10:07:45;7.25;;;2.55;;
30303;SDS011;17112;48.636;10.152;2024-02-21T10:10:14;9.27;;;2.78;;
30303;SDS011;17112;48.636;10.152;2024-02-21T10:12:48;10.48;;;2.83;;
30303;SDS011;17112;48.636;10.152;2024-02-21T10:15:19;7.55;;;2.55;;
30303;SDS011;17112;48.636;10.152;2024-02-21T10:17:46;6.10;;;2.33;;
30303;SDS011;17112;48.636;10.152;2024-02-21T10:20:11;7.75;;;2.20;;
30303;SDS011;17112;48.636;10.152;2024-02-21T10:22:39;11.57;;;2.97;;
30303;SDS011;17112;48.636;10.152;2024-02-21T10:27:37;5.70;;;2.35;;
30303;SDS011;17112;48.636;10.152;2024-02-21T10:30:07;7.13;;;2.50;;
30303;SDS011;17112;48.636;10.152;2024-02-21T10:32:47;8.13;;;2.58;;
30303;SDS011;17112;48.636;10.152;2024-02-21T10:35:25;6.70;;;2.80;;
30303;SDS011;17112;48.636;10.152;2024-02-21T10:37:55;7.05;;;2.88;;
30303;SDS011;17112;48.636;10.152;2024-02-21T10:40:22;9.50;;;3.17;;
30303;SDS011;17112;48.636;10.152;2024-02-21T10:42:56;5.78;;;2.75;;
30303;SDS011;17112;48.636;10.152;2024-02-21T10:45:29;7.40;;;2.78;;
30303;SDS011;17112;48.636;10.152;2024-02-21T10:47:59;11.85;;;3.42;;
30303;SDS011;17112;48.636;10.152;2024-02-21T10:50:44;7.25;;;3.15;;
30303;SDS011;17112;48.636;10.152;2024-02-21T10:53:29;6.70;;;2.90;;
30303;SDS011;17112;48.636;10.152;2024-02-21T10:56:11;11.45;;;3.90;;
30303;SDS011;17112;48.636;10.152;2024-02-21T10:58:41;8.73;;;3.45;;
30303;SDS011;17112;48.636;10.152;2024-02-21T11:01:08;8.50;;;3.08;;
30303;SDS011;17112;48.636;10.152;2024-02-21T11:03:34;11.25;;;3.28;;
30303;SDS011;17112;48.636;10.152;2024-02-21T11:06:03;10.98;;;3.03;;
30303;SDS011;17112;48.636;10.152;2024-02-21T11:08:30;9.80;;;2.72;;
30303;SDS011;17112;48.636;10.152;2024-02-21T11:10:56;14.55;;;3.55;;
30303;SDS011;17112;48.636;10.152;2024-02-21T11:13:31;7.63;;;2.55;;
30303;SDS011;17112;48.636;10.152;2024-02-21T11:16:10;5.07;;;2.60;;
30303;SDS011;17112;48.636;10.152;2024-02-21T11:18:47;8.30;;;2.85;;
30303;SDS011;17112;48.636;10.152;2024-02-21T11:21:13;7.70;;;2.70;;
30303;SDS011;17112;48.636;10.152;2024-02-21T11:23:38;7.13;;;2.67;;
30303;SDS011;17112;48.636;10.152;2024-02-21T11:26:10;7.88;;;2.78;;
30303;SDS011;17112;48.636;10.152;2024-02-21T11:28:44;8.77;;;3.05;;
30303;SDS011;17112;48.636;10.152;2024-02-21T11:31:12;6.55;;;2.45;;
30303;SDS011;17112;48.636;10.152;2024-02-21T11:33:42;7.57;;;2.78;;
30303;SDS011;17112;48.636;10.152;2024-02-21T11:36:11;9.20;;;2.65;;
30303;SDS011;17112;48.636;10.152;2024-02-21T11:38:51;7.55;;;2.30;;
30303;SDS011;17112;48.636;10.152;2024-02-21T11:41:18;4.55;;;2.08;;
30303;SDS011;17112;48.636;10.152;2024-02-21T11:43:46;5.80;;;2.30;;
30303;SDS011;17112;48.636;10.152;2024-02-21T11:46:14;5.45;;;2.10;;
30303;SDS011;17112;48.636;10.152;2024-02-21T11:48:41;4.50;;;1.80;;
30303;SDS011;17112;48.636;10.152;2024-02-21T11:51:09;6.53;;;2.30;;
30303;SDS011;17112;48.636;10.152;2024-02-21T11:53:36;8.38;;;2.10;;
30303;SDS011;17112;48.636;10.152;2024-02-21T11:56:02;4.63;;;2.00;;
30303;SDS011;17112;48.636;10.152;2024-02-21T11:58:30;6.32;;;2.13;;
30303;SDS011;17112;48.636;10.152;2024-02-21T12:00:56;4.25;;;1.73;;
30303;SDS011;17112;48.636;10.152;2024-02-21T12:03:23;5.00;;;1.70;;
30303;SDS011;17112;48.636;10.152;2024-02-21T12:05:48;5.38;;;2.22;;
30303;SDS011;17112;48.636;10.152;2024-02-21T12:08:15;5.75;;;1.73;;
30303;SDS011;17112;48.636;10.152;2024-02-21T12:10:41;4.80;;;1.80;;
30303;SDS011;17112;48.636;10.152;2024-02-21T12:13:09;7.43;;;1.75;;
30303;SDS011;17112;48.636;10.152;2024-02-21T12:15:35;5.53;;;1.67;;
30303;SDS011;17112;48.636;10.152;2024-02-21T12:18:01;4.00;;;1.90;;
30303;SDS011;17112;48.636;10.152;2024-02-21T12:20:30;5.20;;;1.67;;
30303;SDS011;17112;48.636;10.152;2024-02-21T12:23:01;3.55;;;1.70;;
30303;SDS011;17112;48.636;10.152;2024-02-21T12:25:27;3.85;;;1.63;;
30303;SDS011;17112;48.636;10.152;2024-02-21T12:27:54;3.35;;;1.65;;
30303;SDS011;17112;48.636;10.152;2024-02-21T12:30:24;5.78;;;1.95;;
30303;SDS011;17112;48.636;10.152;2024-02-21T12:32:50;7.53;;;2.25;;
30303;SDS011;17112;48.636;10.152;2024-02-21T12:35:16;8.07;;;1.77;;
30303;SDS011;17112;48.636;10.152;2024-02-21T12:37:42;5.80;;;1.60;;
30303;SDS011;17112;48.636;10.152;2024-02-21T12:40:08;5.03;;;1.85;;
30303;SDS011;17112;48.636;10.152;2024-02-21T12:42:35;3.53;;;1.50;;
30303;SDS011;17112;48.636;10.152;2024-02-21T12:45:02;3.97;;;1.65;;
30303;SDS011;17112;48.636;10.152;2024-02-21T12:47:28;3.42;;;1.73;;
30303;SDS011;17112;48.636;10.152;2024-02-21T12:49:54;3.35;;;1.25;;
30303;SDS011;17112;48.636;10.152;2024-02-21T12:52:19;2.67;;;1.65;;
30303;SDS011;17112;48.636;10.152;2024-02-21T12:54:45;3.67;;;1.70;;
30303;SDS011;17112;48.636;10.152;2024-02-21T12:57:11;4.72;;;1.65;;
30303;SDS011;17112;48.636;10.152;2024-02-21T12:59:36;4.97;;;1.65;;
30303;SDS011;17112;48.636;10.152;2024-02-21T13:02:02;4.18;;;2.35;;
30303;SDS011;17112;48.636;10.152;2024-02-21T13:04:31;4.65;;;2.47;;
30303;SDS011;17112;48.636;10.152;2024-02-21T13:06:56;3.97;;;1.98;;
30303;SDS011;17112;48.636;10.152;2024-02-21T13:09:22;2.65;;;1.70;;
30303;SDS011;17112;48.636;10.152;2024-02-21T13:11:50;6.78;;;1.90;;
30303;SDS011;17112;48.636;10.152;2024-02-21T13:14:18;4.78;;;1.85;;
30303;SDS011;17112;48.636;10.152;2024-02-21T13:16:44;3.63;;;1.50;;
30303;SDS011;17112;48.636;10.152;2024-02-21T13:19:10;3.35;;;1.48;;
30303;SDS011;17112;48.636;10.152;2024-02-21T13:21:35;3.28;;;1.52;;
30303;SDS011;17112;48.636;10.152;2024-02-21T13:24:01;4.75;;;1.70;;
30303;SDS011;17112;48.636;10.152;2024-02-21T13:26:28;4.45;;;1.67;;
30303;SDS011;17112;48.636;10.152;2024-02-21T13:28:53;2.95;;;1.45;;
30303;SDS011;17112;48.636;10.152;2024-02-21T13:31:19;2.88;;;1.77;;
30303;SDS011;17112;48.636;10.152;2024-02-21T13:33:46;7.70;;;1.88;;
30303;SDS011;17112;48.636;10.152;2024-02-21T13:36:17;5.85;;;1.67;;
30303;SDS011;17112;48.636;10.152;2024-02-21T13:38:45;4.38;;;1.52;;
30303;SDS011;17112;48.636;10.152;2024-02-21T13:41:12;8.27;;;4.60;;
30303;SDS011;17112;48.636;10.152;2024-02-21T13:43:41;5.70;;;3.15;;
30303;SDS011;17112;48.636;10.152;2024-02-21T13:46:06;6.28;;;3.90;;
30303;SDS011;17112;48.636;10.152;2024-02-21T13:48:36;4.60;;;2.30;;
30303;SDS011;17112;48.636;10.152;2024-02-21T13:51:02;3.38;;;1.67;;
30303;SDS011;17112;48.636;10.152;2024-02-21T13:53:28;4.68;;;2.17;;
30303;SDS011;17112;48.636;10.152;2024-02-21T13:55:54;3.95;;;1.80;;
30303;SDS011;17112;48.636;10.152;2024-02-21T13:58:19;3.38;;;1.48;;
30303;SDS011;17112;48.636;10.152;2024-02-21T14:00:46;3.47;;;1.73;;
30303;SDS011;17112;48.636;10.152;2024-02-21T14:03:11;3.47;;;1.92;;
30303;SDS011;17112;48.636;10.152;2024-02-21T14:05:37;4.53;;;1.80;;
30303;SDS011;17112;48.636;10.152;2024-02-21T14:08:04;4.13;;;1.80;;
30303;SDS011;17112;48.636;10.152;2024-02-21T14:10:30;3.60;;;1.80;;
30303;SDS011;17112;48.636;10.152;2024-02-21T14:12:56;6.95;;;1.70;;
30303;SDS011;17112;48.636;10.152;2024-02-21T14:15:22;5.28;;;1.77;;
30303;SDS011;17112;48.636;10.152;2024-02-21T14:17:47;5.00;;;1.88;;
30303;SDS011;17112;48.636;10.152;2024-02-21T14:20:13;5.50;;;1.48;;
30303;SDS011;17112;48.636;10.152;2024-02-21T14:22:39;3.53;;;1.70;;
30303;SDS011;17112;48.636;10.152;2024-02-21T14:25:04;3.33;;;1.40;;
30303;SDS011;17112;48.636;10.152;2024-02-21T14:27:31;2.55;;;1.52;;
30303;SDS011;17112;48.636;10.152;2024-02-21T14:29:57;4.35;;;1.60;;
30303;SDS011;17112;48.636;10.152;2024-02-21T14:32:22;4.78;;;1.63;;
30303;SDS011;17112;48.636;10.152;2024-02-21T14:34:48;3.45;;;1.75;;
30303;SDS011;17112;48.636;10.152;2024-02-21T14:37:14;4.15;;;1.60;;